createdAt,value
2023-03-04T00:00:12.204Z,2.7
2023-03-04T00:03:12.563Z,2.9
2023-03-04T00:06:12.234Z,2.9
2023-03-04T00:09:12.257Z,3
2023-03-04T00:12:12.171Z,3.1
2023-03-04T00:15:12.170Z,3.2
2023-03-04T00:18:12.139Z,3.4
2023-03-04T00:21:12.114Z,3.5
2023-03-04T00:24:12.175Z,3.6
2023-03-04T00:27:12.153Z,3.6
2023-03-04T00:30:13.066Z,3.7
2023-03-04T00:33:12.166Z,3.9
2023-03-04T00:36:12.162Z,3.9
2023-03-04T00:39:12.108Z,3.9
2023-03-04T00:42:12.092Z,3.9
2023-03-04T00:45:12.190Z,4
2023-03-04T00:48:12.127Z,4
2023-03-04T00:51:12.171Z,4
2023-03-04T00:54:12.417Z,4
2023-03-04T00:57:12.188Z,4.1
2023-03-04T01:00:12.256Z,4
2023-03-04T01:03:12.187Z,4.1
2023-03-04T01:06:12.099Z,4.1
2023-03-04T01:09:12.223Z,4.1
2023-03-04T01:12:12.243Z,4.1
2023-03-04T01:15:12.230Z,4.2
2023-03-04T01:18:12.702Z,4.2
2023-03-04T01:21:12.278Z,4.2
2023-03-04T01:24:12.105Z,4.2
2023-03-04T01:27:12.078Z,4.2
2023-03-04T01:30:12.153Z,4.2
2023-03-04T01:33:12.148Z,4.2
2023-03-04T01:36:12.302Z,4.2
2023-03-04T01:39:12.106Z,4.4
2023-03-04T01:42:12.164Z,4.4
2023-03-04T01:45:12.209Z,4.4
2023-03-04T01:48:12.163Z,4.4
2023-03-04T01:51:12.100Z,4.4
2023-03-04T01:54:12.194Z,4.4
2023-03-04T01:57:12.131Z,4.4
2023-03-04T02:00:12.220Z,4.5
2023-03-04T02:03:12.266Z,4.4
2023-03-04T02:06:12.132Z,4.4
2023-03-04T02:09:12.302Z,4.4
2023-03-04T02:12:12.170Z,4.5
2023-03-04T02:15:12.170Z,4.5
2023-03-04T02:18:12.229Z,4.5
2023-03-04T02:21:12.119Z,4.5
2023-03-04T02:24:12.122Z,4.5
2023-03-04T02:27:12.106Z,4.5
2023-03-04T02:30:12.219Z,4.5
2023-03-04T02:33:12.172Z,4.5
2023-03-04T02:36:12.092Z,4.5
2023-03-04T02:39:13.085Z,4.5
2023-03-04T02:42:12.263Z,4.5
2023-03-04T02:45:12.206Z,4.6
2023-03-04T02:48:12.140Z,4.6
2023-03-04T02:51:12.184Z,4.6
2023-03-04T02:54:12.207Z,4.6
2023-03-04T02:57:12.200Z,4.6
2023-03-04T03:00:12.082Z,4.6
2023-03-04T03:03:12.829Z,4.6
2023-03-04T03:06:12.213Z,4.6
2023-03-04T03:09:12.094Z,4.6
2023-03-04T03:12:12.270Z,4.6
2023-03-04T03:15:12.499Z,4.6
2023-03-04T03:18:12.718Z,4.6
2023-03-04T03:21:12.153Z,4.7
2023-03-04T03:24:12.201Z,4.7
2023-03-04T03:27:12.224Z,4.7
2023-03-04T03:30:12.139Z,4.7
2023-03-04T03:33:12.149Z,4.7
2023-03-04T03:36:12.837Z,4.7
2023-03-04T03:39:12.173Z,4.7
2023-03-04T03:42:12.118Z,4.7
2023-03-04T03:45:12.266Z,4.7
2023-03-04T03:48:12.146Z,4.7
2023-03-04T03:51:12.216Z,4.6
2023-03-04T03:54:12.196Z,4.6
2023-03-04T03:57:12.201Z,4.6
2023-03-04T04:00:12.545Z,4.6
2023-03-04T04:03:12.758Z,4.6
2023-03-04T04:06:12.240Z,4.6
2023-03-04T04:09:12.193Z,4.6
2023-03-04T04:12:12.136Z,4.6
2023-03-04T04:15:12.837Z,4.6
2023-03-04T04:18:12.274Z,4.6
2023-03-04T04:21:12.196Z,4.6
2023-03-04T04:24:12.261Z,4.6
2023-03-04T04:27:12.187Z,4.6
2023-03-04T04:30:12.321Z,4.6
2023-03-04T04:33:12.168Z,4.6
2023-03-04T04:36:12.358Z,4.6
2023-03-04T04:39:12.219Z,4.6
2023-03-04T04:42:12.148Z,4.6
2023-03-04T04:45:12.280Z,4.5
2023-03-04T04:48:12.292Z,4.6
2023-03-04T04:51:12.196Z,4.6
2023-03-04T04:54:12.397Z,4.6
2023-03-04T04:57:12.164Z,4.6
2023-03-04T05:00:12.217Z,4.5
2023-03-04T05:03:12.647Z,4.5
2023-03-04T05:06:12.195Z,4.5
2023-03-04T05:09:12.130Z,4.5
2023-03-04T05:12:12.183Z,4.5
2023-03-04T05:15:12.117Z,4.5
2023-03-04T05:18:12.191Z,4.5
2023-03-04T05:21:12.158Z,4.5
2023-03-04T05:24:12.155Z,4.4
2023-03-04T05:27:12.132Z,4.4
2023-03-04T05:30:12.198Z,4.4
2023-03-04T05:33:12.133Z,4.4
2023-03-04T05:36:12.400Z,4.4
2023-03-04T05:39:12.220Z,4.2
2023-03-04T05:42:12.231Z,4.2
2023-03-04T05:45:12.225Z,4.4
2023-03-04T05:48:12.216Z,4.2
2023-03-04T05:51:12.158Z,4.4
2023-03-04T05:54:12.256Z,4.4
2023-03-04T05:57:12.161Z,4.4
2023-03-04T06:00:12.324Z,4.2
2023-03-04T06:03:12.468Z,4.2
2023-03-04T06:06:12.273Z,4.4
2023-03-04T06:09:12.451Z,4.4
2023-03-04T06:12:12.217Z,4.4
2023-03-04T06:15:12.243Z,4.5
2023-03-04T06:18:12.306Z,4.4
2023-03-04T06:21:12.335Z,4.5
2023-03-04T06:24:12.230Z,4.5
2023-03-04T06:27:12.321Z,4.5
2023-03-04T06:30:12.874Z,4.6
2023-03-04T06:33:12.222Z,4.6
2023-03-04T06:36:12.312Z,4.6
2023-03-04T06:39:12.211Z,4.7
2023-03-04T06:42:12.299Z,4.9
2023-03-04T06:45:12.307Z,4.9
2023-03-04T06:48:12.210Z,5
2023-03-04T06:51:12.257Z,5.2
2023-03-04T06:54:12.234Z,5.2
2023-03-04T06:57:12.181Z,5.5
2023-03-04T07:00:12.340Z,5.5
2023-03-04T07:03:12.260Z,5.6
2023-03-04T07:06:12.284Z,5.9
2023-03-04T07:09:12.409Z,6.1
2023-03-04T07:12:12.196Z,6.4
2023-03-04T07:15:12.479Z,6.6
2023-03-04T07:18:12.243Z,6.9
2023-03-04T07:21:12.260Z,7
2023-03-04T07:24:12.249Z,7.2
2023-03-04T07:27:12.306Z,7.5
2023-03-04T07:30:12.449Z,7.6
2023-03-04T07:33:12.304Z,7.6
2023-03-04T07:36:12.299Z,7.6
2023-03-04T07:39:12.305Z,7.7
2023-03-04T07:42:12.157Z,8
2023-03-04T07:45:12.230Z,8
2023-03-04T07:48:12.387Z,7.9
2023-03-04T07:51:12.485Z,7.9
2023-03-04T07:54:12.269Z,8
2023-03-04T07:57:12.333Z,8.3
2023-03-04T08:00:12.692Z,8.5
2023-03-04T08:03:12.236Z,8.5
2023-03-04T08:06:12.291Z,8.5
2023-03-04T08:09:12.257Z,8.6
2023-03-04T08:12:12.344Z,9.4
2023-03-04T08:15:12.312Z,10
2023-03-04T08:18:12.214Z,9.8
2023-03-04T08:21:12.321Z,10
2023-03-04T08:24:13.113Z,9.6
2023-03-04T08:27:12.326Z,9.4
2023-03-04T08:30:12.323Z,9.4
2023-03-04T08:33:12.568Z,9.3
2023-03-04T08:36:12.158Z,9.1
2023-03-04T08:39:12.240Z,9
2023-03-04T08:42:12.190Z,8.8
2023-03-04T08:45:12.259Z,8.6
2023-03-04T08:48:12.216Z,8.8
2023-03-04T08:51:12.369Z,9.9
2023-03-04T08:54:12.242Z,12.4
2023-03-04T08:57:12.269Z,14
2023-03-04T09:00:12.362Z,13.6
2023-03-04T09:03:12.243Z,13.1
2023-03-04T09:06:12.379Z,12
2023-03-04T09:09:12.215Z,11.1
2023-03-04T09:12:12.260Z,10.4
2023-03-04T09:15:25.058Z,9.5
2023-03-04T09:18:12.952Z,8.9
2023-03-04T09:21:12.261Z,8.3
2023-03-04T09:24:12.208Z,7.9
2023-03-04T09:27:12.302Z,7.9
2023-03-04T09:30:12.209Z,8
2023-03-04T09:33:12.204Z,8.3
2023-03-04T09:36:12.747Z,8.5
2023-03-04T09:39:12.219Z,8.6
2023-03-04T09:42:12.198Z,8.5
2023-03-04T09:45:12.267Z,8.6
2023-03-04T09:48:12.277Z,8.5
2023-03-04T09:51:12.283Z,8.9
2023-03-04T09:54:12.338Z,8.9
2023-03-04T09:57:12.278Z,9.4
2023-03-04T10:00:12.523Z,9.6
2023-03-04T10:03:12.535Z,9.6
2023-03-04T10:06:12.272Z,9.9
2023-03-04T10:09:12.245Z,9.8
2023-03-04T10:12:12.296Z,9.6
2023-03-04T10:15:12.289Z,9.4
2023-03-04T10:18:12.176Z,9.1
2023-03-04T10:21:12.318Z,9.4
2023-03-04T10:24:12.229Z,9.6
2023-03-04T10:27:12.218Z,11
2023-03-04T10:30:12.221Z,12.2
2023-03-04T10:33:12.232Z,12.9
2023-03-04T10:36:12.435Z,13
2023-03-04T10:39:12.229Z,13
2023-03-04T10:42:13.283Z,12.8
2023-03-04T10:45:12.263Z,12.2
2023-03-04T10:48:12.338Z,11.6
2023-03-04T10:51:12.270Z,11.3
2023-03-04T10:54:12.203Z,11
2023-03-04T10:57:12.182Z,10.6
2023-03-04T11:00:12.409Z,10.4
2023-03-04T11:03:12.110Z,10.1
2023-03-04T11:06:12.367Z,10
2023-03-04T11:09:12.394Z,10.1
2023-03-04T11:12:12.252Z,10.8
2023-03-04T11:15:12.294Z,11.9
2023-03-04T11:18:12.254Z,13.1
2023-03-04T11:21:12.300Z,14.4
2023-03-04T11:24:31.782Z,16.9
2023-03-04T11:27:12.332Z,16.8
2023-03-04T11:30:12.217Z,16.4
2023-03-04T11:33:12.218Z,15.6
2023-03-04T11:36:12.242Z,14.7
2023-03-04T11:39:12.483Z,13.9
2023-03-04T11:42:12.219Z,12.9
2023-03-04T11:45:34.466Z,12.1
2023-03-04T11:48:12.269Z,11.5
2023-03-04T11:51:15.060Z,11.4
2023-03-04T11:54:12.287Z,11
2023-03-04T11:57:14.936Z,11.3
2023-03-04T12:00:12.518Z,11.6
2023-03-04T12:03:15.156Z,13.1
2023-03-04T12:06:12.276Z,15
2023-03-04T12:09:12.441Z,15.4
2023-03-04T12:12:12.249Z,14.7
2023-03-04T12:15:12.370Z,14.6
2023-03-04T12:18:12.620Z,15
2023-03-04T12:21:12.195Z,16.4
2023-03-04T12:24:12.209Z,16.6
2023-03-04T12:27:12.229Z,17.9
2023-03-04T12:30:12.398Z,21.2
2023-03-04T12:33:12.965Z,22.6
2023-03-04T12:36:12.416Z,24.7
2023-03-04T12:39:12.301Z,27.2
2023-03-04T12:42:12.339Z,26.1
2023-03-04T12:45:12.373Z,22.4
2023-03-04T12:48:12.289Z,20.6
2023-03-04T12:51:12.324Z,19.6
2023-03-04T12:54:12.257Z,18.3
2023-03-04T12:57:12.286Z,17.2
2023-03-04T13:00:12.390Z,16
2023-03-04T13:03:13.163Z,15.3
2023-03-04T13:06:12.283Z,14.5
2023-03-04T13:09:12.302Z,14.3
2023-03-04T13:12:12.215Z,14.7
2023-03-04T13:15:12.246Z,16.6
2023-03-04T13:18:12.337Z,20.3
2023-03-04T13:21:12.212Z,24.1
2023-03-04T13:24:12.231Z,20.3
2023-03-04T13:27:12.180Z,17.1
2023-03-04T13:30:12.422Z,15.5
2023-03-04T13:33:12.252Z,15.1
2023-03-04T13:36:12.420Z,15.3
2023-03-04T13:39:12.169Z,15.3
2023-03-04T13:42:12.395Z,14.5
2023-03-04T13:45:12.314Z,14.4
2023-03-04T13:48:12.244Z,14.5
2023-03-04T13:51:30.859Z,14.6
2023-03-04T13:54:12.278Z,14.5
2023-03-04T13:57:12.220Z,14.6
2023-03-04T14:00:13.138Z,15.6
2023-03-04T14:03:12.328Z,15.8
2023-03-04T14:06:12.568Z,15.1
2023-03-04T14:09:14.345Z,14.4
2023-03-04T14:12:12.401Z,13.1
2023-03-04T14:15:12.522Z,12.5
2023-03-04T14:18:12.410Z,12.1
2023-03-04T14:21:12.348Z,12
2023-03-04T14:24:12.330Z,12.4
2023-03-04T14:27:12.243Z,12.8
2023-03-04T14:30:12.366Z,12.9
2023-03-04T14:33:12.151Z,13
2023-03-04T14:36:12.455Z,13
2023-03-04T14:39:12.260Z,15.3
2023-03-04T14:42:12.249Z,14.4
2023-03-04T14:45:12.328Z,13.5
2023-03-04T14:48:12.197Z,12.5
2023-03-04T14:51:12.310Z,11.4
2023-03-04T14:54:12.240Z,10.5
2023-03-04T14:57:12.220Z,9.9
2023-03-04T15:00:12.231Z,9.6
2023-03-04T15:03:12.226Z,9.5
2023-03-04T15:06:12.253Z,9.4
2023-03-04T15:09:12.332Z,9.4
2023-03-04T15:12:12.226Z,9.4
2023-03-04T15:15:12.229Z,9.3
2023-03-04T15:18:12.296Z,9.3
2023-03-04T15:21:12.211Z,9.1
2023-03-04T15:24:12.272Z,9.1
2023-03-04T15:27:12.227Z,9
2023-03-04T15:30:12.501Z,8.8
2023-03-04T15:33:12.282Z,8.1
2023-03-04T15:36:12.288Z,7.5
2023-03-04T15:39:12.220Z,7.2
2023-03-04T15:42:12.424Z,7.2
2023-03-04T15:45:12.182Z,6.9
2023-03-04T15:48:12.504Z,6.7
2023-03-04T15:51:12.223Z,6.6
2023-03-04T15:54:12.176Z,6.5
2023-03-04T15:57:12.212Z,6.4
2023-03-04T16:00:12.261Z,6.5
2023-03-04T16:03:12.228Z,6.6
2023-03-04T16:06:12.210Z,6.6
2023-03-04T16:09:17.323Z,6.5
2023-03-04T16:12:12.239Z,6.4
2023-03-04T16:15:14.713Z,6.4
2023-03-04T16:18:12.350Z,6.4
2023-03-04T16:21:14.200Z,6.1
2023-03-04T16:24:12.271Z,6
2023-03-04T16:27:14.992Z,5.7
2023-03-04T16:30:12.282Z,5.5
2023-03-04T16:33:12.266Z,5.4
2023-03-04T16:36:13.076Z,5.2
2023-03-04T16:39:12.233Z,5.1
2023-03-04T16:42:12.343Z,5
2023-03-04T16:45:12.936Z,5
2023-03-04T16:48:12.198Z,4.9
2023-03-04T16:51:12.283Z,4.9
2023-03-04T16:54:12.185Z,4.9
2023-03-04T16:57:12.262Z,4.7
2023-03-04T17:00:12.336Z,4.7
2023-03-04T17:03:12.769Z,4.7
2023-03-04T17:06:12.168Z,4.6
2023-03-04T17:09:12.239Z,4.6
2023-03-04T17:12:12.111Z,4.6
2023-03-04T17:15:12.144Z,4.6
2023-03-04T17:18:12.117Z,4.6
2023-03-04T17:21:12.177Z,4.5
2023-03-04T17:24:14.616Z,4.5
2023-03-04T17:27:12.153Z,4.5
2023-03-04T17:30:14.244Z,4.5
2023-03-04T17:33:12.235Z,4.5
2023-03-04T17:36:15.096Z,4.6
2023-03-04T17:39:12.477Z,4.6
2023-03-04T17:42:12.200Z,4.6
2023-03-04T17:45:12.197Z,4.6
2023-03-04T17:48:12.141Z,4.4
2023-03-04T17:51:12.221Z,4.1
2023-03-04T17:54:12.164Z,3.9
2023-03-04T17:57:12.191Z,3.7
2023-03-04T18:00:12.380Z,3.6
2023-03-04T18:03:12.100Z,3.5
2023-03-04T18:06:12.221Z,3.4
2023-03-04T18:09:12.356Z,3.4
2023-03-04T18:12:12.168Z,3.4
2023-03-04T18:15:12.279Z,3.4
2023-03-04T18:18:12.176Z,3.4
2023-03-04T18:21:12.143Z,3.4
2023-03-04T18:24:12.117Z,3.4
2023-03-04T18:27:12.237Z,3.4
2023-03-04T18:30:12.119Z,3.4
2023-03-04T18:33:12.839Z,3.4
2023-03-04T18:36:12.414Z,3.5
2023-03-04T18:39:12.265Z,3.5
2023-03-04T18:42:12.340Z,3.5
2023-03-04T18:45:12.289Z,3.5
2023-03-04T18:48:12.242Z,3.5
2023-03-04T18:51:12.128Z,3.5
2023-03-04T18:54:12.259Z,3.5
2023-03-04T18:57:12.252Z,3.6
2023-03-04T19:00:12.185Z,3.6
2023-03-04T19:03:12.232Z,3.6
2023-03-04T19:06:12.208Z,3.6
2023-03-04T19:09:12.253Z,3.6
2023-03-04T19:12:12.165Z,3.6
2023-03-04T19:15:12.233Z,3.6
2023-03-04T19:18:12.228Z,3.6
2023-03-04T19:21:16.219Z,3.6
2023-03-04T19:24:12.194Z,3.6
2023-03-04T19:27:12.201Z,3.7
2023-03-04T19:30:12.215Z,3.7
2023-03-04T19:33:12.203Z,3.7
2023-03-04T19:36:12.351Z,3.7
2023-03-04T19:39:12.253Z,3.7
2023-03-04T19:42:12.248Z,3.7
2023-03-04T19:45:12.310Z,3.7
2023-03-04T19:48:12.111Z,3.7
2023-03-04T19:51:12.239Z,3.7
2023-03-04T19:54:12.386Z,3.7
2023-03-04T19:57:12.176Z,3.7
2023-03-04T20:00:12.603Z,3.7
2023-03-04T20:03:12.142Z,3.7
2023-03-04T20:06:12.122Z,3.7
2023-03-04T20:09:12.692Z,3.7
2023-03-04T20:12:12.179Z,3.7
2023-03-04T20:15:12.124Z,3.7
2023-03-04T20:18:12.244Z,3.7
2023-03-04T20:21:12.268Z,3.6
2023-03-04T20:24:12.209Z,3.7
2023-03-04T20:27:12.918Z,3.6
2023-03-04T20:30:15.338Z,3.6
2023-03-04T20:33:12.150Z,3.6
2023-03-04T20:36:12.218Z,3.6
2023-03-04T20:39:37.071Z,3.6
2023-03-04T20:42:12.107Z,3.6
2023-03-04T20:45:12.180Z,3.6
2023-03-04T20:48:12.214Z,3.6
2023-03-04T20:51:12.213Z,3.6
2023-03-04T20:54:12.179Z,3.6
2023-03-04T20:57:12.201Z,3.5
2023-03-04T21:00:12.191Z,3.5
2023-03-04T21:03:12.117Z,3.5
2023-03-04T21:06:12.231Z,3.5
2023-03-04T21:09:12.113Z,3.5
2023-03-04T21:12:12.503Z,3.5
2023-03-04T21:15:12.118Z,3.5
2023-03-04T21:18:12.188Z,3.5
2023-03-04T21:21:12.123Z,3.5
2023-03-04T21:24:12.275Z,3.5
2023-03-04T21:27:12.158Z,3.4
2023-03-04T21:30:12.202Z,3.5
2023-03-04T21:33:15.086Z,3.4
2023-03-04T21:36:12.392Z,3.4
2023-03-04T21:39:12.150Z,3.4
2023-03-04T21:42:12.262Z,3.4
2023-03-04T21:45:12.385Z,3.4
2023-03-04T21:48:12.171Z,3.4
2023-03-04T21:51:12.214Z,3.4
2023-03-04T21:54:12.164Z,3.4
2023-03-04T21:57:12.195Z,3.2
2023-03-04T22:00:14.469Z,3.2
2023-03-04T22:03:12.213Z,3.2
2023-03-04T22:06:12.223Z,3.2
2023-03-04T22:09:12.261Z,3.2
2023-03-04T22:12:12.287Z,3.2
2023-03-04T22:15:12.225Z,3.2
2023-03-04T22:18:12.186Z,3.2
2023-03-04T22:21:12.221Z,3.2
2023-03-04T22:24:12.194Z,3.2
2023-03-04T22:27:12.312Z,3.2
2023-03-04T22:30:12.353Z,3.2
2023-03-04T22:33:12.244Z,3.2
2023-03-04T22:36:12.375Z,3.2
2023-03-04T22:39:12.541Z,3.2
2023-03-04T22:42:12.108Z,3.2
2023-03-04T22:45:12.245Z,3.2
2023-03-04T22:48:12.207Z,3.2
2023-03-04T22:51:12.208Z,3.2
2023-03-04T22:54:12.166Z,3.2
2023-03-04T22:57:12.268Z,3.2
2023-03-04T23:00:12.792Z,3.2
2023-03-04T23:03:12.240Z,3.2
2023-03-04T23:06:12.186Z,3.1
2023-03-04T23:09:12.158Z,3.1
2023-03-04T23:12:12.359Z,3.1
2023-03-04T23:15:12.589Z,3.1
2023-03-04T23:18:12.310Z,3.1
2023-03-04T23:21:12.181Z,3.1
2023-03-04T23:24:12.205Z,3.1
2023-03-04T23:27:12.180Z,3
2023-03-04T23:30:12.215Z,3
2023-03-04T23:33:12.235Z,3
2023-03-04T23:36:13.522Z,3
2023-03-04T23:39:12.332Z,2.9
2023-03-04T23:42:12.213Z,2.9
2023-03-04T23:45:12.274Z,2.9
2023-03-04T23:48:12.223Z,2.9
2023-03-04T23:51:12.261Z,2.9
2023-03-04T23:54:12.192Z,2.9
2023-03-04T23:57:12.194Z,2.9
